Time;durP1;ratioP1;P1;durP2;ratioP2;P2;SDS_P1;SDS_P2;PMS_P1;PMS_P2;Temp;Humidity;BMP_temperature;BMP_pressure;BME280_temperature;BME280_humidity;BME280_pressure;Samples;Min_cycle;Max_cycle;Signal;HPM_P1;HPM_P2
2021/12/10 00:00:34;;;;;;;17.07;7.40;;;7.30;78.60;;;;;;5075730;28;20461;-72
2021/12/10 00:03:03;;;;;;;17.07;7.33;;;7.30;78.40;;;;;;5090781;28;20036;-71
2021/12/10 00:05:42;;;;;;;14.20;7.67;;;7.30;78.50;;;;;;5092297;28;20148;-72
2021/12/10 00:08:09;;;;;;;13.80;6.43;;;7.30;78.40;;;;;;5088231;28;20092;-71
2021/12/10 00:10:40;;;;;;;14.33;6.93;;;7.20;78.40;;;;;;5092181;28;20043;-72
2021/12/10 00:13:07;;;;;;;14.73;7.53;;;7.20;78.40;;;;;;5092576;28;20103;-71
2021/12/10 00:15:34;;;;;;;15.10;8.07;;;7.20;78.40;;;;;;5093115;28;20032;-71
2021/12/10 00:18:04;;;;;;;14.30;7.03;;;7.20;78.40;;;;;;5075233;28;20024;-71
2021/12/10 00:20:32;;;;;;;16.47;7.87;;;7.20;78.30;;;;;;5090016;28;20028;-71
2021/12/10 00:23:02;;;;;;;14.47;7.33;;;7.20;78.30;;;;;;5092611;28;20417;-72
2021/12/10 00:25:36;;;;;;;22.27;9.27;;;7.20;78.20;;;;;;5091702;28;20024;-71
2021/12/10 00:28:23;;;;;;;14.23;7.37;;;7.10;78.10;;;;;;5089946;28;20411;-72
2021/12/10 00:31:03;;;;;;;15.47;8.40;;;7.10;78.10;;;;;;5091325;28;20021;-71
2021/12/10 00:33:34;;;;;;;14.63;7.63;;;7.10;78.10;;;;;;5092857;28;20185;-71
2021/12/10 00:36:00;;;;;;;15.60;8.77;;;7.00;78.00;;;;;;5093157;28;20028;-72
2021/12/10 00:38:26;;;;;;;15.50;8.43;;;7.00;78.00;;;;;;5091229;28;20042;-71
2021/12/10 00:40:52;;;;;;;14.37;7.87;;;7.00;78.00;;;;;;5107102;28;20436;-72
2021/12/10 00:43:18;;;;;;;16.27;8.17;;;7.00;78.00;;;;;;5091767;28;20047;-71
2021/12/10 00:45:43;;;;;;;14.50;7.00;;;7.00;78.00;;;;;;5093426;28;20035;-72
2021/12/10 00:48:09;;;;;;;15.43;8.40;;;7.00;78.00;;;;;;5095529;28;20032;-71
2021/12/10 00:50:46;;;;;;;18.07;8.47;;;6.90;78.00;;;;;;5089345;28;20363;-71
2021/12/10 00:53:11;;;;;;;16.77;8.47;;;6.90;78.00;;;;;;5092056;28;20028;-72
2021/12/10 00:55:38;;;;;;;15.00;7.83;;;6.90;78.00;;;;;;5091182;28;20043;-71
2021/12/10 00:58:04;;;;;;;15.87;8.27;;;6.90;78.00;;;;;;5090774;28;20039;-72
2021/12/10 01:00:44;;;;;;;20.47;8.53;;;6.90;78.10;;;;;;5090661;28;20036;-71
2021/12/10 01:03:13;;;;;;;18.80;9.20;;;6.80;78.00;;;;;;5079044;28;20409;-71
2021/12/10 01:05:41;;;;;;;21.73;9.40;;;6.80;78.00;;;;;;5090804;28;20028;-72
2021/12/10 01:08:08;;;;;;;13.27;7.90;;;6.80;78.00;;;;;;5091924;28;20046;-72
2021/12/10 01:10:46;;;;;;;18.73;8.77;;;6.80;77.90;;;;;;5091398;28;20364;-71
2021/12/10 01:13:16;;;;;;;17.97;8.43;;;6.80;78.00;;;;;;5091295;28;20020;-71
2021/12/10 01:24:08;;;;;;;16.83;8.20;;;6.80;78.00;;;;;;5092672;28;20499;-72
2021/12/10 01:29:21;;;;;;;17.60;7.95;;;6.70;78.00;;;;;;5092088;28;20111;-71
2021/12/10 01:31:47;;;;;;;;;;;6.80;78.00;;;;;;5075099;28;20063;-72
2021/12/10 01:34:14;;;;;;;14.40;7.13;;;6.70;78.00;;;;;;5093281;28;20317;-71
2021/12/10 01:36:41;;;;;;;13.80;8.37;;;6.70;78.10;;;;;;5099470;28;20083;-71
2021/12/10 01:39:09;;;;;;;15.27;7.87;;;6.70;78.00;;;;;;5104341;28;20070;-71
2021/12/10 01:41:39;;;;;;;15.70;8.57;;;6.70;78.00;;;;;;5092392;28;20024;-71
2021/12/10 01:44:15;;;;;;;17.47;8.67;;;6.70;77.90;;;;;;5077989;28;20024;-72
2021/12/10 01:46:43;;;;;;;15.03;7.97;;;6.70;77.90;;;;;;5095480;28;20028;-71
2021/12/10 01:49:12;;;;;;;16.97;8.77;;;6.70;77.90;;;;;;5104399;28;20044;-71
2021/12/10 01:51:40;;;;;;;16.67;8.23;;;6.70;78.00;;;;;;5094383;28;20100;-72
2021/12/10 01:54:17;;;;;;;12.07;7.20;;;6.70;78.00;;;;;;5095857;28;20047;-71
2021/12/10 01:56:43;;;;;;;14.00;8.60;;;6.60;77.90;;;;;;5095815;28;20396;-71
2021/12/10 01:59:11;;;;;;;16.93;8.20;;;6.60;78.00;;;;;;5094874;28;20118;-72
2021/12/10 02:01:44;;;;;;;16.93;8.90;;;6.60;78.00;;;;;;5095477;28;20028;-71
2021/12/10 02:04:13;;;;;;;15.30;7.60;;;6.50;77.90;;;;;;5095586;28;20506;-71
2021/12/10 02:06:39;;;;;;;16.17;8.83;;;6.50;78.00;;;;;;5095410;28;20028;-71
2021/12/10 02:09:08;;;;;;;15.60;7.67;;;6.50;77.90;;;;;;5100131;28;20029;-71
2021/12/10 02:11:34;;;;;;;16.93;8.33;;;6.50;77.90;;;;;;5092583;28;20036;-71
2021/12/10 02:13:59;;;;;;;15.53;8.63;;;6.50;78.00;;;;;;5095055;28;20024;-71
2021/12/10 02:16:25;;;;;;;16.77;9.43;;;6.50;77.90;;;;;;5095239;28;20107;-71
2021/12/10 02:18:51;;;;;;;18.00;9.43;;;6.40;77.80;;;;;;5094994;28;20023;-71
2021/12/10 02:21:19;;;;;;;15.57;8.97;;;6.40;77.90;;;;;;5092940;28;20229;-71
2021/12/10 02:23:55;;;;;;;14.70;8.03;;;6.40;77.90;;;;;;5093814;28;20020;-71
2021/12/10 02:26:22;;;;;;;15.17;7.87;;;6.40;77.90;;;;;;5109452;28;20037;-71
2021/12/10 02:28:47;;;;;;;14.73;8.30;;;6.40;77.90;;;;;;5102685;28;20035;-71
2021/12/10 02:31:15;;;;;;;13.93;7.90;;;6.40;77.90;;;;;;5094058;28;20032;-71
2021/12/10 02:33:41;;;;;;;13.93;6.80;;;6.30;77.70;;;;;;5107952;28;20031;-71
2021/12/10 02:36:11;;;;;;;12.43;7.87;;;6.30;77.80;;;;;;5077186;28;20119;-71
2021/12/10 02:38:47;;;;;;;13.07;7.50;;;6.30;77.80;;;;;;5091488;28;20032;-71
2021/12/10 02:41:15;;;;;;;18.83;8.20;;;6.30;77.80;;;;;;5077164;28;20123;-71
2021/12/10 02:43:42;;;;;;;14.47;7.60;;;6.30;77.80;;;;;;5094496;28;20041;-71
2021/12/10 02:46:07;;;;;;;14.97;7.77;;;6.30;77.70;;;;;;5095149;28;20032;-71
2021/12/10 02:48:33;;;;;;;15.30;6.37;;;6.30;77.70;;;;;;5093262;28;20039;-71
2021/12/10 02:51:00;;;;;;;14.23;6.53;;;6.20;77.60;;;;;;5098900;28;20028;-72
2021/12/10 02:53:30;;;;;;;12.67;6.87;;;6.20;77.60;;;;;;5093738;28;20024;-71
2021/12/10 02:55:58;;;;;;;12.40;6.43;;;6.20;77.60;;;;;;5093960;28;20032;-71
2021/12/10 02:58:24;;;;;;;13.93;6.33;;;6.20;77.60;;;;;;5093735;28;20063;-71
2021/12/10 03:00:58;;;;;;;11.47;5.60;;;6.20;77.60;;;;;;5094005;28;20078;-71
2021/12/10 03:03:24;;;;;;;13.67;7.23;;;6.20;77.60;;;;;;5093373;28;20453;-71
2021/12/10 03:05:50;;;;;;;15.27;6.63;;;6.20;77.60;;;;;;5094177;28;20048;-72
2021/12/10 03:08:17;;;;;;;11.27;6.10;;;6.20;77.50;;;;;;5091895;28;20127;-71
2021/12/10 03:10:43;;;;;;;13.80;6.93;;;6.20;77.40;;;;;;5093948;28;20028;-71
2021/12/10 03:13:10;;;;;;;16.67;7.17;;;6.20;77.40;;;;;;5093354;28;20036;-72
2021/12/10 03:15:36;;;;;;;14.57;7.47;;;6.10;77.40;;;;;;5092602;28;20024;-71
2021/12/10 03:18:04;;;;;;;12.77;6.83;;;6.10;77.30;;;;;;5074949;28;20115;-71
2021/12/10 03:20:31;;;;;;;13.10;7.03;;;6.10;77.40;;;;;;5092633;28;20035;-71
2021/12/10 03:22:59;;;;;;;11.80;6.70;;;6.10;77.40;;;;;;5076037;28;20412;-71
2021/12/10 03:25:25;;;;;;;12.63;7.17;;;6.00;77.40;;;;;;5094263;28;20047;-71
2021/12/10 03:27:51;;;;;;;13.53;6.67;;;6.10;77.40;;;;;;5075650;28;20063;-72
2021/12/10 03:30:21;;;;;;;12.57;6.53;;;6.10;77.40;;;;;;5105710;28;20453;-71
2021/12/10 03:32:48;;;;;;;10.77;5.73;;;6.10;77.40;;;;;;5090295;28;20065;-71
2021/12/10 03:35:19;;;;;;;16.73;6.77;;;6.10;77.40;;;;;;5088329;28;20081;-72
2021/12/10 03:37:46;;;;;;;10.00;5.60;;;6.00;77.30;;;;;;5093569;28;20358;-72
2021/12/10 03:40:14;;;;;;;13.97;6.03;;;6.00;77.40;;;;;;5089601;28;20448;-71
2021/12/10 03:42:40;;;;;;;10.37;6.03;;;6.00;77.40;;;;;;5092413;28;20027;-71
2021/12/10 03:45:08;;;;;;;13.83;5.57;;;6.00;77.40;;;;;;5093212;28;20111;-71
2021/12/10 03:47:34;;;;;;;11.97;6.17;;;6.00;77.40;;;;;;5089318;28;20459;-72
2021/12/10 03:50:00;;;;;;;10.17;5.93;;;5.90;77.30;;;;;;5092206;28;20024;-72
2021/12/10 03:52:25;;;;;;;12.70;5.40;;;5.90;77.40;;;;;;5092513;28;20031;-71
2021/12/10 03:54:51;;;;;;;10.17;5.57;;;5.90;77.40;;;;;;5093030;28;20028;-72
2021/12/10 03:57:18;;;;;;;11.33;5.80;;;5.90;77.50;;;;;;5092883;28;20032;-71
2021/12/10 03:59:44;;;;;;;9.80;5.43;;;5.90;77.40;;;;;;5089883;28;20167;-71
2021/12/10 04:02:11;;;;;;;10.40;5.10;;;5.90;77.40;;;;;;5092095;28;20151;-72
2021/12/10 04:04:40;;;;;;;12.07;5.10;;;5.90;77.40;;;;;;5078801;28;20321;-71
2021/12/10 04:07:11;;;;;;;11.80;5.07;;;5.90;77.50;;;;;;5087263;28;20048;-72
2021/12/10 04:09:37;;;;;;;11.47;5.40;;;5.90;77.40;;;;;;5090454;28;20035;-72
2021/12/10 04:12:04;;;;;;;9.70;4.87;;;5.90;77.40;;;;;;5095492;28;20357;-72
2021/12/10 04:14:29;;;;;;;7.70;3.93;;;5.90;77.30;;;;;;5092053;28;20028;-71
2021/12/10 04:16:56;;;;;;;10.43;4.63;;;5.90;77.30;;;;;;5091762;28;20028;-71
2021/12/10 04:19:25;;;;;;;9.73;4.20;;;5.90;77.30;;;;;;5104482;28;20035;-71
2021/12/10 04:21:53;;;;;;;12.03;5.30;;;5.90;77.30;;;;;;5092678;28;20032;-71
2021/12/10 04:24:20;;;;;;;12.00;5.33;;;5.90;77.30;;;;;;5093408;28;20028;-71
2021/12/10 04:26:47;;;;;;;10.17;4.47;;;5.90;77.30;;;;;;5091793;28;20556;-72
2021/12/10 04:29:13;;;;;;;8.97;4.13;;;5.80;77.20;;;;;;5093032;28;20086;-72
2021/12/10 04:31:39;;;;;;;9.70;4.50;;;5.80;77.20;;;;;;5091347;28;20036;-71
2021/12/10 04:34:05;;;;;;;9.33;4.33;;;5.80;77.30;;;;;;5092237;28;20081;-71
2021/12/10 04:36:32;;;;;;;8.73;4.43;;;5.80;77.80;;;;;;5074541;28;20026;-71
2021/12/10 04:38:57;;;;;;;7.77;3.77;;;5.80;77.20;;;;;;5108350;28;20031;-71
2021/12/10 04:41:24;;;;;;;10.43;5.23;;;5.80;77.10;;;;;;5089286;28;20028;-71
2021/12/10 04:43:50;;;;;;;10.00;4.80;;;5.80;77.10;;;;;;5091856;28;20020;-72
2021/12/10 04:46:16;;;;;;;9.07;4.20;;;5.80;77.00;;;;;;5075243;28;20047;-72
2021/12/10 04:48:47;;;;;;;6.93;3.77;;;5.80;76.90;;;;;;5093007;28;20024;-71
2021/12/10 04:51:14;;;;;;;10.67;4.07;;;5.80;76.80;;;;;;5092532;28;20035;-71
2021/12/10 04:53:40;;;;;;;8.77;4.40;;;5.80;76.80;;;;;;5090631;28;20382;-71
2021/12/10 04:56:06;;;;;;;11.07;4.33;;;5.80;76.70;;;;;;5092638;28;20020;-72
2021/12/10 04:58:32;;;;;;;7.80;3.73;;;5.80;76.70;;;;;;5091976;28;20032;-71
2021/12/10 05:00:58;;;;;;;8.87;3.80;;;5.80;76.70;;;;;;5092152;28;20064;-71
2021/12/10 05:03:24;;;;;;;8.20;3.63;;;5.80;76.60;;;;;;5089925;28;20055;-71
2021/12/10 05:05:49;;;;;;;8.13;3.57;;;5.70;76.70;;;;;;5092555;28;20024;-71
2021/12/10 05:08:15;;;;;;;9.50;3.67;;;5.70;76.70;;;;;;5090625;28;20028;-71
2021/12/10 05:10:41;;;;;;;12.03;4.67;;;5.70;76.60;;;;;;5093684;28;20035;-72
2021/12/10 05:13:06;;;;;;;11.30;4.50;;;5.70;76.70;;;;;;5096523;28;20032;-72
2021/12/10 05:15:34;;;;;;;10.57;4.83;;;5.70;76.70;;;;;;5096490;28;20020;-72
2021/12/10 05:18:01;;;;;;;13.40;4.97;;;5.70;76.60;;;;;;5078519;28;20033;-71
2021/12/10 05:20:31;;;;;;;13.57;5.27;;;5.70;76.60;;;;;;5096760;28;20112;-71
2021/12/10 05:22:57;;;;;;;9.77;4.30;;;5.70;76.40;;;;;;5096124;28;20027;-72
2021/12/10 05:25:26;;;;;;;13.97;5.60;;;5.70;76.50;;;;;;5095282;28;20020;-71
2021/12/10 05:27:52;;;;;;;12.50;5.00;;;5.70;76.40;;;;;;5094787;28;20097;-71
2021/12/10 05:30:20;;;;;;;12.10;4.33;;;5.70;76.50;;;;;;5094974;28;20414;-72
2021/12/10 05:32:46;;;;;;;9.00;4.50;;;5.70;76.40;;;;;;5096024;28;20023;-71
2021/12/10 05:35:12;;;;;;;17.03;4.83;;;5.70;76.40;;;;;;5095295;28;20024;-72
2021/12/10 05:37:38;;;;;;;13.13;4.77;;;5.70;76.40;;;;;;5094409;28;20039;-72
2021/12/10 05:40:06;;;;;;;12.10;4.37;;;5.70;76.40;;;;;;5094159;28;20020;-71
2021/12/10 05:42:32;;;;;;;12.40;4.53;;;5.70;76.30;;;;;;5094493;28;20032;-71
2021/12/10 05:44:57;;;;;;;8.90;4.43;;;5.70;76.90;;;;;;5095080;28;20346;-71
2021/12/10 05:47:23;;;;;;;10.47;4.30;;;5.70;76.20;;;;;;5095808;28;20052;-71
2021/12/10 05:49:49;;;;;;;12.87;3.90;;;5.70;76.10;;;;;;5095658;28;20032;-71
2021/12/10 05:52:15;;;;;;;10.33;4.13;;;5.70;76.10;;;;;;5095881;28;20024;-71
2021/12/10 05:54:42;;;;;;;12.53;4.23;;;5.70;76.10;;;;;;5095040;28;20027;-72
2021/12/10 05:57:07;;;;;;;16.47;5.23;;;5.70;76.10;;;;;;5094838;28;20043;-71
2021/12/10 05:59:33;;;;;;;10.47;4.70;;;5.70;76.10;;;;;;5102826;28;20036;-71
2021/12/10 06:01:59;;;;;;;10.83;4.50;;;5.70;76.10;;;;;;5094292;28;20032;-72
2021/12/10 06:04:27;;;;;;;10.93;4.50;;;5.70;76.10;;;;;;5093906;28;20024;-71
2021/12/10 06:06:54;;;;;;;12.87;4.03;;;5.80;76.10;;;;;;5095458;28;20036;-72
2021/12/10 06:09:20;;;;;;;12.07;4.90;;;5.80;76.00;;;;;;5095250;28;20320;-71
2021/12/10 06:11:45;;;;;;;12.10;4.27;;;5.80;76.00;;;;;;5093720;28;20031;-72
2021/12/10 06:14:11;;;;;;;10.23;4.00;;;5.80;75.90;;;;;;5094525;28;20509;-72
2021/12/10 06:16:37;;;;;;;10.40;4.00;;;5.80;75.90;;;;;;5108078;28;20131;-72
2021/12/10 06:19:05;;;;;;;10.87;3.83;;;5.70;75.90;;;;;;5094340;28;20051;-72
2021/12/10 06:21:32;;;;;;;10.43;3.57;;;5.80;75.90;;;;;;5092351;28;20038;-72
2021/12/10 06:23:58;;;;;;;10.23;3.37;;;5.70;75.80;;;;;;5092218;28;20020;-72
2021/12/10 06:26:24;;;;;;;10.40;3.57;;;5.70;75.80;;;;;;5090408;28;20047;-72
2021/12/10 06:28:49;;;;;;;10.27;3.57;;;5.70;75.80;;;;;;5094137;28;20039;-71
2021/12/10 06:31:18;;;;;;;13.30;3.47;;;5.70;75.80;;;;;;5095620;28;20108;-72
2021/12/10 06:33:44;;;;;;;12.43;3.33;;;5.80;75.80;;;;;;5094440;28;20446;-72
2021/12/10 06:36:10;;;;;;;10.50;3.03;;;5.80;75.80;;;;;;5111985;28;20459;-72
2021/12/10 06:38:36;;;;;;;12.27;3.87;;;5.80;75.70;;;;;;5077586;28;20032;-72
2021/12/10 06:41:02;;;;;;;9.37;3.90;;;5.80;75.70;;;;;;5079648;28;20032;-72
2021/12/10 06:43:28;;;;;;;9.33;3.20;;;5.80;75.60;;;;;;5087858;28;20364;-71
2021/12/10 06:45:54;;;;;;;10.70;3.67;;;5.80;75.60;;;;;;5095149;28;20043;-72
2021/12/10 06:48:23;;;;;;;11.50;4.07;;;5.80;75.50;;;;;;5092707;28;20039;-72
2021/12/10 06:50:57;;;;;;;12.77;3.37;;;5.90;75.60;;;;;;5095810;28;20088;-71
2021/12/10 06:53:25;;;;;;;8.60;2.97;;;5.90;75.60;;;;;;5095683;28;20074;-71
2021/12/10 06:55:51;;;;;;;8.43;3.70;;;5.90;75.50;;;;;;5095008;28;20051;-72
2021/12/10 06:58:17;;;;;;;6.93;3.00;;;5.80;75.50;;;;;;5094636;28;20024;-72
2021/12/10 07:00:55;;;;;;;11.73;3.40;;;5.90;75.60;;;;;;5110003;28;20047;-72
2021/12/10 07:03:24;;;;;;;8.47;3.20;;;5.80;75.40;;;;;;5103774;28;20071;-72
2021/12/10 07:05:51;;;;;;;11.43;3.30;;;5.90;75.50;;;;;;5088776;28;20430;-72
2021/12/10 07:08:18;;;;;;;10.90;3.63;;;5.90;75.50;;;;;;5094447;28;20028;-72
2021/12/10 07:10:45;;;;;;;10.10;3.77;;;5.80;75.40;;;;;;5094449;28;20081;-72
2021/12/10 07:13:11;;;;;;;9.57;3.30;;;5.90;75.50;;;;;;5094764;28;20047;-72
2021/12/10 07:15:41;;;;;;;9.40;3.27;;;5.90;75.40;;;;;;5099265;28;20070;-73
2021/12/10 07:18:07;;;;;;;12.33;3.07;;;6.00;75.60;;;;;;5062156;28;20036;-73
2021/12/10 07:20:33;;;;;;;9.97;3.77;;;6.00;75.40;;;;;;5087424;28;20036;-72
2021/12/10 07:22:59;;;;;;;8.43;3.10;;;6.00;75.20;;;;;;5075221;28;20380;-73
2021/12/10 07:25:25;;;;;;;7.37;2.70;;;6.00;75.10;;;;;;5093429;28;20032;-73
2021/12/10 07:27:51;;;;;;;10.63;3.47;;;6.00;75.10;;;;;;5093245;28;20040;-73
2021/12/10 07:30:22;;;;;;;12.47;3.20;;;6.00;75.10;;;;;;5075494;28;20051;-71
2021/12/10 07:32:48;;;;;;;8.85;3.45;;;6.00;75.10;;;;;;5093859;28;20116;-71
2021/12/10 07:35:15;;;;;;;9.00;2.93;;;6.00;75.20;;;;;;5076879;28;20437;-70
2021/12/10 07:37:40;;;;;;;9.80;3.63;;;5.90;75.10;;;;;;5089914;28;20032;-70
2021/12/10 07:40:09;;;;;;;8.03;3.10;;;6.00;75.20;;;;;;5092690;28;20401;-70
2021/12/10 07:42:35;;;;;;;9.53;2.93;;;5.90;75.10;;;;;;5090301;28;20036;-71
2021/12/10 07:45:02;;;;;;;8.57;3.50;;;6.00;75.10;;;;;;5075395;28;20081;-70
2021/12/10 07:47:33;;;;;;;11.47;3.30;;;6.00;75.10;;;;;;5093363;28;20440;-71
2021/12/10 07:50:00;;;;;;;10.20;3.50;;;6.00;75.10;;;;;;5091859;28;20028;-71
2021/12/10 07:52:28;;;;;;;9.83;2.90;;;6.00;75.00;;;;;;5086381;28;20020;-70
2021/12/10 07:54:54;;;;;;;7.07;2.67;;;6.00;75.00;;;;;;5098366;28;20028;-71
2021/12/10 07:57:20;;;;;;;13.47;3.43;;;6.00;75.00;;;;;;5093832;28;20027;-72
2021/12/10 07:59:48;;;;;;;8.27;3.47;;;6.00;74.90;;;;;;5093359;28;20019;-72
2021/12/10 08:02:15;;;;;;;11.77;3.33;;;6.00;74.90;;;;;;5094034;28;20045;-72
2021/12/10 08:04:41;;;;;;;8.13;3.43;;;6.10;74.90;;;;;;5094226;28;20024;-72
2021/12/10 08:07:07;;;;;;;11.63;3.40;;;6.00;74.80;;;;;;5084529;28;20032;-72
2021/12/10 08:09:32;;;;;;;13.13;3.47;;;6.00;74.80;;;;;;5075302;28;20032;-72
2021/12/10 08:11:58;;;;;;;13.30;3.33;;;6.10;74.80;;;;;;5089587;28;20027;-72
2021/12/10 08:14:24;;;;;;;10.73;3.63;;;6.10;74.70;;;;;;5091892;28;20456;-72
2021/12/10 08:16:49;;;;;;;10.57;3.70;;;6.10;74.70;;;;;;5093799;28;20141;-73
2021/12/10 08:19:15;;;;;;;6.43;2.70;;;6.10;74.70;;;;;;5094560;28;20189;-72
2021/12/10 08:21:43;;;;;;;10.83;3.40;;;6.10;74.60;;;;;;5093528;28;20016;-72
2021/12/10 08:24:09;;;;;;;9.53;3.30;;;6.20;74.60;;;;;;5078321;28;20039;-72
2021/12/10 08:26:36;;;;;;;8.73;3.17;;;6.20;74.60;;;;;;5076246;28;20036;-72
2021/12/10 08:29:05;;;;;;;12.37;3.40;;;6.20;74.40;;;;;;5092055;28;20028;-72
2021/12/10 08:31:31;;;;;;;11.13;3.13;;;6.20;74.40;;;;;;5094098;28;20035;-72
2021/12/10 08:33:57;;;;;;;8.50;3.53;;;6.20;74.40;;;;;;5083913;28;20103;-72
2021/12/10 08:36:24;;;;;;;8.13;2.60;;;6.20;74.20;;;;;;5105544;28;20410;-72
2021/12/10 08:38:50;;;;;;;8.63;3.17;;;6.30;74.20;;;;;;5093218;28;20047;-72
2021/12/10 08:41:23;;;;;;;9.03;3.80;;;6.30;74.20;;;;;;5092912;28;20032;-72
2021/12/10 08:43:50;;;;;;;14.77;4.47;;;6.20;74.10;;;;;;5094045;28;20032;-72
2021/12/10 08:46:17;;;;;;;9.40;3.93;;;6.30;74.10;;;;;;5098568;28;20122;-72
2021/12/10 08:48:44;;;;;;;9.43;2.90;;;6.30;74.10;;;;;;5097507;28;20028;-72
2021/12/10 08:51:25;;;;;;;14.23;4.33;;;6.30;74.00;;;;;;5097847;28;20385;-72
2021/12/10 08:53:52;;;;;;;9.57;3.05;;;6.30;73.90;;;;;;5098807;28;20024;-72
2021/12/10 08:56:18;;;;;;;10.97;3.20;;;6.30;73.90;;;;;;5097868;28;20032;-72
2021/12/10 08:58:43;;;;;;;11.97;4.70;;;6.30;73.90;;;;;;5096898;28;20024;-72
2021/12/10 09:01:16;;;;;;;10.40;3.37;;;6.30;73.90;;;;;;5097879;28;20055;-72
2021/12/10 09:03:44;;;;;;;10.40;3.63;;;6.30;73.90;;;;;;5096988;28;20024;-72
2021/12/10 09:06:11;;;;;;;10.57;3.90;;;6.30;73.80;;;;;;5082404;28;20028;-72
2021/12/10 09:08:37;;;;;;;12.80;3.63;;;6.30;73.80;;;;;;5097676;28;20028;-72
2021/12/10 09:11:04;;;;;;;8.87;3.53;;;6.40;73.80;;;;;;5088742;28;20020;-72
2021/12/10 09:13:30;;;;;;;10.20;3.93;;;6.40;73.70;;;;;;5084948;28;20500;-72
2021/12/10 09:16:00;;;;;;;14.10;4.33;;;6.40;73.70;;;;;;5097665;28;20031;-73
2021/12/10 09:18:26;;;;;;;7.93;3.57;;;6.50;73.60;;;;;;5097667;28;20026;-72
2021/12/10 09:20:55;;;;;;;9.23;4.00;;;6.50;73.50;;;;;;5096638;28;20401;-72
2021/12/10 09:23:24;;;;;;;10.10;3.17;;;6.60;73.50;;;;;;5096623;28;20036;-72
2021/12/10 09:25:52;;;;;;;9.40;3.53;;;6.60;73.30;;;;;;5088933;28;20035;-72
2021/12/10 09:28:18;;;;;;;8.73;3.40;;;6.60;73.30;;;;;;5077595;28;20467;-72
2021/12/10 09:30:49;;;;;;;10.07;3.50;;;6.60;73.20;;;;;;5077487;28;20024;-72
2021/12/10 09:33:14;;;;;;;10.73;3.70;;;6.70;73.20;;;;;;5078944;28;20417;-72
2021/12/10 09:35:40;;;;;;;10.43;3.47;;;6.70;73.20;;;;;;5096275;28;20024;-72
2021/12/10 09:38:06;;;;;;;12.30;2.87;;;6.70;73.10;;;;;;5095574;28;20034;-72
2021/12/10 09:40:38;;;;;;;13.20;3.70;;;6.70;73.00;;;;;;5095770;28;20035;-72
2021/12/10 09:43:06;;;;;;;8.32;3.30;;;6.70;72.90;;;;;;5095655;28;20079;-72
2021/12/10 09:45:34;;;;;;;8.20;3.37;;;6.80;72.90;;;;;;5096595;28;20282;-72
2021/12/10 09:48:03;;;;;;;7.93;3.50;;;6.80;72.90;;;;;;5075070;28;20029;-72
2021/12/10 09:50:34;;;;;;;8.97;2.70;;;6.80;72.80;;;;;;5090962;28;20031;-72
2021/12/10 09:53:00;;;;;;;9.70;3.37;;;6.80;72.70;;;;;;5096660;28;20042;-72
2021/12/10 09:55:27;;;;;;;9.57;3.50;;;6.90;73.30;;;;;;5094559;28;20106;-71
2021/12/10 09:57:53;;;;;;;9.60;3.20;;;6.90;72.60;;;;;;5096076;28;20445;-72
2021/12/10 10:00:33;;;;;;;7.33;3.07;;;6.90;72.60;;;;;;5095591;28;20105;-71
2021/12/10 10:03:00;;;;;;;7.53;2.93;;;6.80;72.40;;;;;;5095801;28;20414;-72
2021/12/10 10:05:27;;;;;;;8.83;3.23;;;6.80;72.40;;;;;;5096336;28;20039;-72
2021/12/10 10:08:00;;;;;;;12.27;3.30;;;6.80;72.40;;;;;;5095372;28;20039;-72
2021/12/10 10:10:27;;;;;;;8.47;3.33;;;6.80;72.40;;;;;;5092439;28;20168;-72
2021/12/10 10:12:55;;;;;;;11.27;2.90;;;6.90;72.40;;;;;;5096375;28;20020;-72
2021/12/10 10:15:28;;;;;;;9.47;3.27;;;6.90;72.30;;;;;;5078811;28;20048;-70
2021/12/10 10:17:57;;;;;;;7.20;3.10;;;6.90;72.30;;;;;;5096250;28;20032;-72
2021/12/10 10:20:23;;;;;;;9.93;3.20;;;6.90;72.30;;;;;;5098614;28;20093;-72
2021/12/10 10:22:50;;;;;;;10.07;3.43;;;6.90;72.20;;;;;;5075496;28;20029;-72
2021/12/10 10:25:18;;;;;;;12.27;3.80;;;6.90;72.10;;;;;;5084644;28;20127;-73
2021/12/10 10:27:45;;;;;;;11.33;3.40;;;6.90;72.10;;;;;;5096189;28;20047;-73
2021/12/10 10:30:24;;;;;;;10.50;3.53;;;6.90;72.10;;;;;;5078700;28;20027;-73
2021/12/10 10:32:51;;;;;;;7.30;2.73;;;7.00;72.10;;;;;;5095394;28;20059;-73
2021/12/10 10:35:22;;;;;;;9.40;3.03;;;7.00;72.00;;;;;;5075179;28;20036;-72
2021/12/10 10:37:49;;;;;;;7.40;2.78;;;7.00;72.10;;;;;;5076092;28;20032;-72
2021/12/10 10:40:21;;;;;;;6.83;2.90;;;7.00;72.00;;;;;;5092302;28;20039;-72
2021/12/10 10:42:48;;;;;;;10.63;3.30;;;7.00;72.00;;;;;;5112111;28;20100;-72
2021/12/10 10:45:20;;;;;;;10.20;3.37;;;7.00;72.10;;;;;;5112245;28;20444;-72
2021/12/10 10:47:47;;;;;;;7.40;2.90;;;7.10;71.90;;;;;;5096228;28;20040;-71
2021/12/10 10:50:26;;;;;;;7.10;2.40;;;7.10;71.80;;;;;;5096224;28;20024;-72
2021/12/10 10:53:05;;;;;;;9.97;2.60;;;7.10;71.60;;;;;;5112019;28;20341;-73
2021/12/10 10:55:49;;;;;;;8.03;2.50;;;7.10;71.50;;;;;;5094855;28;20020;-72
2021/12/10 10:58:16;;;;;;;9.40;3.07;;;7.10;71.50;;;;;;5112086;28;20470;-73
2021/12/10 11:01:07;;;;;;;9.37;2.60;;;7.20;71.50;;;;;;5094787;28;20028;-73
2021/12/10 11:03:40;;;;;;;7.27;2.40;;;7.20;71.30;;;;;;5111926;28;20093;-73
2021/12/10 11:06:12;;;;;;;13.93;2.77;;;7.20;71.20;;;;;;5094244;28;20429;-73
2021/12/10 11:08:47;;;;;;;8.30;3.07;;;7.20;71.10;;;;;;5093015;28;20126;-73
2021/12/10 11:11:19;;;;;;;8.37;2.67;;;7.20;71.00;;;;;;5086205;28;20085;-73
2021/12/10 11:13:58;;;;;;;8.45;2.58;;;7.30;71.10;;;;;;5095149;28;20024;-73
2021/12/10 11:16:28;;;;;;;10.03;2.73;;;7.30;70.90;;;;;;5075834;28;20525;-72
2021/12/10 11:19:04;;;;;;;8.13;2.60;;;7.30;70.90;;;;;;5096056;28;20366;-72
2021/12/10 11:21:41;;;;;;;10.60;2.90;;;7.40;70.90;;;;;;5095917;28;20435;-72
2021/12/10 11:24:33;;;;;;;9.00;2.93;;;7.40;70.70;;;;;;5095363;28;20032;-72
2021/12/10 11:27:07;;;;;;;10.90;2.80;;;7.40;70.70;;;;;;5111372;28;20048;-73
2021/12/10 11:29:39;;;;;;;11.43;3.53;;;7.40;70.60;;;;;;5095539;28;20024;-73
2021/12/10 11:32:07;;;;;;;;;;;7.40;70.70;;;;;;5095534;28;20433;-73
2021/12/10 11:34:48;;;;;;;7.93;2.20;;;7.40;70.70;;;;;;5094553;28;19908;-73
2021/12/10 11:37:17;;;;;;;7.25;2.40;;;7.40;70.70;;;;;;5093467;28;20089;-73
2021/12/10 11:39:51;;;;;;;8.10;2.63;;;7.30;70.50;;;;;;5093453;28;20115;-72
2021/12/10 11:42:46;;;;;;;8.30;2.63;;;7.40;70.60;;;;;;5097297;28;20208;-73
2021/12/10 11:45:32;;;;;;;8.83;2.67;;;7.40;70.30;;;;;;5082268;28;20106;-72
2021/12/10 11:48:12;;;;;;;8.73;2.13;;;7.40;70.20;;;;;;5084411;28;20028;-73
2021/12/10 11:50:56;;;;;;;6.97;2.40;;;7.40;70.30;;;;;;5094970;28;20024;-73
2021/12/10 11:53:22;;;;;;;7.00;2.40;;;7.40;70.20;;;;;;5074122;28;20079;-70
2021/12/10 11:56:20;;;;;;;12.10;3.23;;;7.40;70.10;;;;;;5074545;28;20201;-70
2021/12/10 11:59:23;;;;;;;7.53;2.80;;;7.40;69.90;;;;;;5074385;28;20028;-72
2021/12/10 12:02:04;;;;;;;10.73;2.70;;;7.40;69.80;;;;;;5056778;28;20029;-72
2021/12/10 12:04:49;;;;;;;9.47;2.87;;;7.40;69.90;;;;;;5085223;28;20126;-72
2021/12/10 12:07:18;;;;;;;8.30;2.57;;;7.50;70.00;;;;;;5110300;28;20046;-73
2021/12/10 12:09:50;;;;;;;9.53;2.40;;;7.50;69.90;;;;;;5094205;28;20028;-73
2021/12/10 12:12:21;;;;;;;7.53;2.60;;;7.50;69.80;;;;;;5093672;28;20028;-73
2021/12/10 12:14:53;;;;;;;8.03;2.67;;;7.50;69.80;;;;;;5093302;28;20448;-73
2021/12/10 12:17:37;;;;;;;;;;;7.50;69.70;;;;;;5095383;28;20036;-73
2021/12/10 12:20:44;;;;;;;6.43;2.20;;;7.50;69.80;;;;;;5093644;28;19972;-73
2021/12/10 12:26:17;;;;;;;9.73;3.10;;;7.50;69.70;;;;;;5094216;28;20032;-73
2021/12/10 12:28:49;;;;;;;8.77;2.70;;;7.50;69.60;;;;;;5094492;28;20073;-72
2021/12/10 12:31:17;;;;;;;7.57;2.50;;;7.50;69.50;;;;;;5094678;28;20433;-73
2021/12/10 12:34:15;;;;;;;9.00;2.93;;;7.50;69.40;;;;;;5093195;28;20073;-72
2021/12/10 12:36:50;;;;;;;9.57;2.77;;;7.60;69.30;;;;;;5074759;28;20072;-73
2021/12/10 12:39:29;;;;;;;6.80;2.40;;;7.60;69.30;;;;;;5074124;28;20441;-72
2021/12/10 12:41:57;;;;;;;10.33;2.60;;;7.60;69.10;;;;;;5053003;28;20017;-72
2021/12/10 12:44:30;;;;;;;10.97;3.00;;;7.60;69.20;;;;;;5069795;28;20040;-72
2021/12/10 12:47:14;;;;;;;9.53;3.07;;;7.60;69.10;;;;;;5052972;28;20056;-73
2021/12/10 12:49:48;;;;;;;7.03;2.27;;;7.50;69.00;;;;;;5052979;28;20520;-72
2021/12/10 12:52:18;;;;;;;10.40;3.30;;;7.50;68.90;;;;;;5054394;28;20341;-72
2021/12/10 12:55:15;;;;;;;10.73;3.20;;;7.50;68.90;;;;;;5092394;28;20051;-72
2021/12/10 12:57:50;;;;;;;10.57;3.17;;;7.50;68.80;;;;;;5092967;28;20404;-72
2021/12/10 13:00:21;;;;;;;8.00;2.83;;;7.50;68.90;;;;;;5092800;28;20550;-73
2021/12/10 13:02:49;;;;;;;;;;;7.60;69.10;;;;;;5094338;28;20052;-72
2021/12/10 13:05:15;;;;;;;8.73;2.50;;;7.50;69.20;;;;;;5075381;28;19981;-73
2021/12/10 13:07:40;;;;;;;9.10;2.70;;;7.50;69.20;;;;;;5072808;28;20079;-75
2021/12/10 13:10:14;;;;;;;8.77;3.00;;;7.50;69.10;;;;;;5055925;28;20122;-73
2021/12/10 13:13:23;;;;;;;7.03;2.57;;;7.60;69.10;;;;;;5072323;28;20048;-72
2021/12/10 13:15:33;;;;;;;7.73;3.13;;;7.60;69.10;;;;;;5083112;28;20036;-72
2021/12/10 13:18:05;;;;;;;8.23;2.47;;;7.60;69.10;;;;;;5109988;28;20341;-73